Homer, Louisiana
Current Conditions -  °F | °C
As of 3:54 PM on Monday 22 Dec 2014 (Local Time) from KMNE Reporting Station
Overcast Overcast  
Wind Chill: 66°   Ceiling: 3100
Heat Index: 66°   Visibility: 10mi
Dew Point: 55°   Wind: 7mph
Humidity: 68%   Direction: 220°SW
Pressure: 29.58"   Gusts: NA
Location:  32.79°N, 93.06°W
Report Text: KMNE 222154Z AUTO 22006KT 10SM OVC031 19/13 A2958 RMK AO2
Loading
Personal Weather Stations






























Interactive Weather Map New forecast layout! Learn more

10-Day Weather Forecast

Advertisements
Track Severe Weather on mobile